sensor_id;sensor_type;location;lat;lon;timestamp;pressure;altitude;pressure_sealevel;temperature;humidity
68859;BME280;55864;49.238;8.092;2024-01-11T00:00:18;100506.56;;;-0.44;62.50
68859;BME280;55864;49.238;8.092;2024-01-11T00:02:18;100510.19;;;-0.50;62.02
68859;BME280;55864;49.238;8.092;2024-01-11T00:04:19;100511.53;;;-0.64;62.33
68859;BME280;55864;49.238;8.092;2024-01-11T00:06:19;100508.50;;;-0.78;61.76
68859;BME280;55864;49.238;8.092;2024-01-11T00:08:20;100505.66;;;-0.99;62.88
68859;BME280;55864;49.238;8.092;2024-01-11T00:10:20;100513.09;;;-1.19;63.79
68859;BME280;55864;49.238;8.092;2024-01-11T00:12:21;100512.78;;;-1.37;63.98
68859;BME280;55864;49.238;8.092;2024-01-11T00:14:23;100514.00;;;-1.50;64.15
68859;BME280;55864;49.238;8.092;2024-01-11T00:16:23;100512.03;;;-1.73;64.88
68859;BME280;55864;49.238;8.092;2024-01-11T00:18:24;100518.56;;;-1.60;65.16
68859;BME280;55864;49.238;8.092;2024-01-11T00:20:24;100520.88;;;-1.83;66.50
68859;BME280;55864;49.238;8.092;2024-01-11T00:22:25;100523.00;;;-1.66;66.60
68859;BME280;55864;49.238;8.092;2024-01-11T00:24:25;100522.19;;;-1.68;66.95
68859;BME280;55864;49.238;8.092;2024-01-11T00:26:26;100512.91;;;-1.74;67.09
68859;BME280;55864;49.238;8.092;2024-01-11T00:28:26;100517.44;;;-1.82;67.98
68859;BME280;55864;49.238;8.092;2024-01-11T00:30:28;100516.44;;;-1.76;67.64
68859;BME280;55864;49.238;8.092;2024-01-11T00:32:29;100513.09;;;-1.80;68.07
68859;BME280;55864;49.238;8.092;2024-01-11T00:34:29;100512.09;;;-1.76;67.83
68859;BME280;55864;49.238;8.092;2024-01-11T00:36:30;100504.13;;;-1.65;66.87
68859;BME280;55864;49.238;8.092;2024-01-11T00:38:30;100507.13;;;-1.82;68.40
68859;BME280;55864;49.238;8.092;2024-01-11T00:40:31;100509.72;;;-1.50;66.84
68859;BME280;55864;49.238;8.092;2024-01-11T00:42:32;100509.88;;;-1.56;66.92
68859;BME280;55864;49.238;8.092;2024-01-11T00:44:34;100516.19;;;-1.67;66.28
68859;BME280;55864;49.238;8.092;2024-01-11T00:46:36;100516.47;;;-1.78;67.19
68859;BME280;55864;49.238;8.092;2024-01-11T00:48:37;100521.38;;;-1.69;67.55
68859;BME280;55864;49.238;8.092;2024-01-11T00:50:37;100511.72;;;-1.61;66.36
68859;BME280;55864;49.238;8.092;2024-01-11T00:52:38;100511.09;;;-1.69;67.21
68859;BME280;55864;49.238;8.092;2024-01-11T00:54:38;100514.00;;;-1.50;66.36
68859;BME280;55864;49.238;8.092;2024-01-11T00:56:39;100511.69;;;-1.59;66.15
68859;BME280;55864;49.238;8.092;2024-01-11T00:58:39;100517.81;;;-1.63;66.77
68859;BME280;55864;49.238;8.092;2024-01-11T01:00:40;100513.34;;;-1.58;66.92
68859;BME280;55864;49.238;8.092;2024-01-11T01:02:42;100509.81;;;-1.54;67.00
68859;BME280;55864;49.238;8.092;2024-01-11T01:04:42;100519.47;;;-1.61;66.64
68859;BME280;55864;49.238;8.092;2024-01-11T01:06:43;100509.00;;;-1.56;66.47
68859;BME280;55864;49.238;8.092;2024-01-11T01:08:43;100515.28;;;-1.66;67.44
68859;BME280;55864;49.238;8.092;2024-01-11T01:10:44;100507.69;;;-1.39;66.27
68859;BME280;55864;49.238;8.092;2024-01-11T01:12:44;100511.69;;;-1.59;66.86
68859;BME280;55864;49.238;8.092;2024-01-11T01:14:45;100514.56;;;-1.71;67.43
68859;BME280;55864;49.238;8.092;2024-01-11T01:16:45;100519.00;;;-1.76;66.94
68859;BME280;55864;49.238;8.092;2024-01-11T01:18:47;100519.53;;;-1.64;67.76
68859;BME280;55864;49.238;8.092;2024-01-11T01:20:48;100514.88;;;-1.82;67.98
68859;BME280;55864;49.238;8.092;2024-01-11T01:22:49;100510.34;;;-1.74;67.24
68859;BME280;55864;49.238;8.092;2024-01-11T01:24:50;100513.72;;;-1.72;67.89
68859;BME280;55864;49.238;8.092;2024-01-11T01:26:50;100512.75;;;-1.68;67.36
68859;BME280;55864;49.238;8.092;2024-01-11T01:28:51;100522.09;;;-1.64;67.26
68859;BME280;55864;49.238;8.092;2024-01-11T01:30:51;100523.34;;;-1.78;67.26
68859;BME280;55864;49.238;8.092;2024-01-11T01:32:54;100525.59;;;-1.66;67.31
68859;BME280;55864;49.238;8.092;2024-01-11T01:34:56;100528.38;;;-1.74;66.89
68859;BME280;55864;49.238;8.092;2024-01-11T01:36:56;100524.19;;;-1.78;67.05
68859;BME280;55864;49.238;8.092;2024-01-11T01:38:57;100529.31;;;-1.76;67.29
68859;BME280;55864;49.238;8.092;2024-01-11T01:40:57;100529.91;;;-1.67;66.91
68859;BME280;55864;49.238;8.092;2024-01-11T01:42:58;100534.47;;;-1.76;67.29
68859;BME280;55864;49.238;8.092;2024-01-11T01:44:59;100537.53;;;-1.96;67.97
68859;BME280;55864;49.238;8.092;2024-01-11T01:47:00;100536.41;;;-1.86;66.94
68859;BME280;55864;49.238;8.092;2024-01-11T01:49:01;100542.91;;;-2.05;67.89
68859;BME280;55864;49.238;8.092;2024-01-11T01:51:04;100542.63;;;-1.95;67.75
68859;BME280;55864;49.238;8.092;2024-01-11T01:53:07;100538.19;;;-1.88;67.58
68859;BME280;55864;49.238;8.092;2024-01-11T01:55:09;100549.78;;;-1.72;67.32
68859;BME280;55864;49.238;8.092;2024-01-11T01:57:11;100547.91;;;-1.99;67.99
68859;BME280;55864;49.238;8.092;2024-01-11T01:59:12;100554.09;;;-2.08;67.57
68859;BME280;55864;49.238;8.092;2024-01-11T02:01:14;100546.78;;;-1.89;67.51
68859;BME280;55864;49.238;8.092;2024-01-11T02:03:15;100542.56;;;-1.92;67.13
68859;BME280;55864;49.238;8.092;2024-01-11T02:05:16;100547.38;;;-1.78;66.88
68859;BME280;55864;49.238;8.092;2024-01-11T02:07:18;100550.94;;;-2.19;67.77
68859;BME280;55864;49.238;8.092;2024-01-11T02:09:19;100547.75;;;-2.28;69.23
68859;BME280;55864;49.238;8.092;2024-01-11T02:11:20;100549.72;;;-2.39;69.20
68859;BME280;55864;49.238;8.092;2024-01-11T02:13:21;100547.13;;;-2.03;68.55
68859;BME280;55864;49.238;8.092;2024-01-11T02:15:22;100555.06;;;-1.76;66.98
68859;BME280;55864;49.238;8.092;2024-01-11T02:17:22;100550.91;;;-1.82;66.90
68859;BME280;55864;49.238;8.092;2024-01-11T02:19:23;100552.16;;;-1.98;67.29
68859;BME280;55864;49.238;8.092;2024-01-11T02:21:24;100554.31;;;-2.17;68.07
68859;BME280;55864;49.238;8.092;2024-01-11T02:23:27;100552.47;;;-2.12;68.13
68859;BME280;55864;49.238;8.092;2024-01-11T02:25:30;100554.84;;;-2.03;67.35
68859;BME280;55864;49.238;8.092;2024-01-11T02:27:31;100555.41;;;-1.90;67.43
68859;BME280;55864;49.238;8.092;2024-01-11T02:29:44;100546.47;;;-1.77;67.22
68859;BME280;55864;49.238;8.092;2024-01-11T02:31:45;100550.06;;;-1.82;67.13
68859;BME280;55864;49.238;8.092;2024-01-11T02:33:45;100542.19;;;-2.12;67.81
68859;BME280;55864;49.238;8.092;2024-01-11T02:35:46;100541.00;;;-1.99;67.02
68859;BME280;55864;49.238;8.092;2024-01-11T02:37:47;100544.38;;;-1.97;67.80
68859;BME280;55864;49.238;8.092;2024-01-11T02:39:48;100538.38;;;-1.96;67.29
68859;BME280;55864;49.238;8.092;2024-01-11T02:41:52;100539.59;;;-2.10;67.46
68859;BME280;55864;49.238;8.092;2024-01-11T02:43:52;100538.31;;;-1.94;67.24
68859;BME280;55864;49.238;8.092;2024-01-11T02:45:54;100539.59;;;-1.76;66.77
68859;BME280;55864;49.238;8.092;2024-01-11T02:47:54;100540.94;;;-1.96;66.94
68859;BME280;55864;49.238;8.092;2024-01-11T02:49:55;100542.94;;;-2.07;67.54
68859;BME280;55864;49.238;8.092;2024-01-11T02:51:56;100537.75;;;-2.05;67.69
68859;BME280;55864;49.238;8.092;2024-01-11T02:53:56;100535.41;;;-1.80;66.93
68859;BME280;55864;49.238;8.092;2024-01-11T02:55:57;100527.28;;;-1.98;67.01
68859;BME280;55864;49.238;8.092;2024-01-11T02:57:58;100528.63;;;-2.18;68.57
68859;BME280;55864;49.238;8.092;2024-01-11T02:59:59;100524.69;;;-2.33;69.10
68859;BME280;55864;49.238;8.092;2024-01-11T03:02:02;100531.13;;;-2.15;68.32
68859;BME280;55864;49.238;8.092;2024-01-11T03:04:02;100524.94;;;-2.07;68.64
68859;BME280;55864;49.238;8.092;2024-01-11T03:06:03;100521.88;;;-2.22;68.68
68859;BME280;55864;49.238;8.092;2024-01-11T03:08:04;100524.63;;;-2.30;69.32
68859;BME280;55864;49.238;8.092;2024-01-11T03:10:05;100524.94;;;-2.08;68.48
68859;BME280;55864;49.238;8.092;2024-01-11T03:12:06;100520.78;;;-2.14;68.58
68859;BME280;55864;49.238;8.092;2024-01-11T03:14:08;100523.44;;;-2.17;68.72
68859;BME280;55864;49.238;8.092;2024-01-11T03:16:09;100523.38;;;-2.14;68.52
68859;BME280;55864;49.238;8.092;2024-01-11T03:18:09;100520.16;;;-2.22;68.88
68859;BME280;55864;49.238;8.092;2024-01-11T03:20:10;100524.50;;;-2.24;69.29
68859;BME280;55864;49.238;8.092;2024-01-11T03:22:14;100526.31;;;-2.29;68.71
68859;BME280;55864;49.238;8.092;2024-01-11T03:24:14;100526.78;;;-2.48;69.64
68859;BME280;55864;49.238;8.092;2024-01-11T03:26:16;100521.59;;;-2.47;69.92
68859;BME280;55864;49.238;8.092;2024-01-11T03:28:17;100533.47;;;-2.41;69.80
68859;BME280;55864;49.238;8.092;2024-01-11T03:30:19;100531.44;;;-2.29;68.75
68859;BME280;55864;49.238;8.092;2024-01-11T03:32:19;100527.38;;;-2.37;69.11
68859;BME280;55864;49.238;8.092;2024-01-11T03:34:20;100532.78;;;-2.49;69.94
68859;BME280;55864;49.238;8.092;2024-01-11T03:36:23;100533.38;;;-2.38;69.46
68859;BME280;55864;49.238;8.092;2024-01-11T03:38:24;100527.94;;;-2.61;70.42
68859;BME280;55864;49.238;8.092;2024-01-11T03:40:24;100533.81;;;-2.56;69.67
68859;BME280;55864;49.238;8.092;2024-01-11T03:42:25;100535.00;;;-2.34;69.42
68859;BME280;55864;49.238;8.092;2024-01-11T03:44:25;100529.72;;;-2.28;69.71
68859;BME280;55864;49.238;8.092;2024-01-11T03:46:27;100523.53;;;-2.21;69.21
68859;BME280;55864;49.238;8.092;2024-01-11T03:48:28;100525.13;;;-2.16;68.90
68859;BME280;55864;49.238;8.092;2024-01-11T03:50:28;100528.31;;;-2.41;69.12
68859;BME280;55864;49.238;8.092;2024-01-11T03:52:29;100526.47;;;-2.35;69.73
68859;BME280;55864;49.238;8.092;2024-01-11T03:54:29;100533.25;;;-2.32;69.89
68859;BME280;55864;49.238;8.092;2024-01-11T03:56:30;100521.25;;;-2.32;69.41
68859;BME280;55864;49.238;8.092;2024-01-11T03:58:30;100520.22;;;-2.25;69.49
68859;BME280;55864;49.238;8.092;2024-01-11T04:00:31;100519.53;;;-2.33;69.71
68859;BME280;55864;49.238;8.092;2024-01-11T04:02:33;100519.34;;;-2.24;69.31
68859;BME280;55864;49.238;8.092;2024-01-11T04:04:33;100521.97;;;-2.25;69.31
68859;BME280;55864;49.238;8.092;2024-01-11T04:06:34;100513.25;;;-2.20;69.45
68859;BME280;55864;49.238;8.092;2024-01-11T04:08:34;100518.09;;;-2.43;70.04
68859;BME280;55864;49.238;8.092;2024-01-11T04:10:35;100512.84;;;-2.40;70.20
68859;BME280;55864;49.238;8.092;2024-01-11T04:12:36;100513.38;;;-2.26;69.99
68859;BME280;55864;49.238;8.092;2024-01-11T04:14:38;100516.47;;;-2.47;70.46
68859;BME280;55864;49.238;8.092;2024-01-11T04:16:39;100515.91;;;-2.59;70.81
68859;BME280;55864;49.238;8.092;2024-01-11T04:18:42;100518.94;;;-2.44;70.50
68859;BME280;55864;49.238;8.092;2024-01-11T04:20:42;100519.53;;;-2.33;70.13
68859;BME280;55864;49.238;8.092;2024-01-11T04:22:43;100523.41;;;-2.50;70.60
68859;BME280;55864;49.238;8.092;2024-01-11T04:24:43;100521.56;;;-2.45;70.53
68859;BME280;55864;49.238;8.092;2024-01-11T04:26:44;100514.44;;;-2.34;70.70
68859;BME280;55864;49.238;8.092;2024-01-11T04:28:47;100512.91;;;-2.41;71.36
68859;BME280;55864;49.238;8.092;2024-01-11T04:30:48;100521.34;;;-2.35;71.13
68859;BME280;55864;49.238;8.092;2024-01-11T04:32:49;100520.28;;;-2.28;70.08
68859;BME280;55864;49.238;8.092;2024-01-11T04:34:50;100512.81;;;-2.37;70.56
68859;BME280;55864;49.238;8.092;2024-01-11T04:36:51;100503.94;;;-2.25;70.11
68859;BME280;55864;49.238;8.092;2024-01-11T04:38:52;100516.72;;;-2.22;70.60
68859;BME280;55864;49.238;8.092;2024-01-11T04:40:52;100511.72;;;-2.28;70.00
68859;BME280;55864;49.238;8.092;2024-01-11T04:42:53;100508.81;;;-2.15;70.17
68859;BME280;55864;49.238;8.092;2024-01-11T04:44:53;100502.91;;;-2.18;70.71
68859;BME280;55864;49.238;8.092;2024-01-11T04:46:54;100514.56;;;-2.40;71.37
68859;BME280;55864;49.238;8.092;2024-01-11T04:48:54;100518.13;;;-2.44;71.56
68859;BME280;55864;49.238;8.092;2024-01-11T04:50:56;100512.56;;;-2.28;70.99
68859;BME280;55864;49.238;8.092;2024-01-11T04:52:57;100522.28;;;-2.39;70.89
68859;BME280;55864;49.238;8.092;2024-01-11T04:54:57;100523.53;;;-2.20;70.77
68859;BME280;55864;49.238;8.092;2024-01-11T04:56:58;100523.78;;;-2.30;70.63
68859;BME280;55864;49.238;8.092;2024-01-11T04:59:00;100534.16;;;-2.33;70.74
68859;BME280;55864;49.238;8.092;2024-01-11T05:01:01;100537.41;;;-2.25;70.17
68859;BME280;55864;49.238;8.092;2024-01-11T05:03:02;100538.72;;;-2.46;70.00
68859;BME280;55864;49.238;8.092;2024-01-11T05:05:02;100537.03;;;-2.47;70.17
68859;BME280;55864;49.238;8.092;2024-01-11T05:07:05;100542.09;;;-2.44;70.09
68859;BME280;55864;49.238;8.092;2024-01-11T05:09:05;100538.78;;;-2.49;70.06
68859;BME280;55864;49.238;8.092;2024-01-11T05:11:06;100542.22;;;-2.48;70.12
68859;BME280;55864;49.238;8.092;2024-01-11T05:13:06;100543.75;;;-2.41;70.20
68859;BME280;55864;49.238;8.092;2024-01-11T05:15:07;100541.97;;;-2.74;70.78
68859;BME280;55864;49.238;8.092;2024-01-11T05:17:08;100542.31;;;-2.53;70.34
68859;BME280;55864;49.238;8.092;2024-01-11T05:19:08;100544.06;;;-2.55;70.25
68859;BME280;55864;49.238;8.092;2024-01-11T05:21:09;100547.91;;;-2.74;69.92
68859;BME280;55864;49.238;8.092;2024-01-11T05:23:11;100552.25;;;-2.76;70.35
68859;BME280;55864;49.238;8.092;2024-01-11T05:25:11;100556.97;;;-2.56;70.17
68859;BME280;55864;49.238;8.092;2024-01-11T05:27:12;100547.50;;;-2.94;70.49
68859;BME280;55864;49.238;8.092;2024-01-11T05:29:12;100555.91;;;-2.86;70.74
68859;BME280;55864;49.238;8.092;2024-01-11T05:31:14;100555.53;;;-2.69;70.30
68859;BME280;55864;49.238;8.092;2024-01-11T05:33:15;100545.97;;;-2.63;70.60
68859;BME280;55864;49.238;8.092;2024-01-11T05:35:16;100557.53;;;-2.83;70.54
68859;BME280;55864;49.238;8.092;2024-01-11T05:37:16;100555.75;;;-2.78;70.60
68859;BME280;55864;49.238;8.092;2024-01-11T05:39:18;100549.03;;;-2.86;70.90
68859;BME280;55864;49.238;8.092;2024-01-11T05:41:19;100550.94;;;-2.95;70.63
68859;BME280;55864;49.238;8.092;2024-01-11T05:43:21;100552.56;;;-2.90;70.91
68859;BME280;55864;49.238;8.092;2024-01-11T05:45:21;100548.38;;;-2.95;70.77
68859;BME280;55864;49.238;8.092;2024-01-11T05:47:22;100559.66;;;-3.02;71.03
68859;BME280;55864;49.238;8.092;2024-01-11T05:49:23;100560.50;;;-3.02;71.74
68859;BME280;55864;49.238;8.092;2024-01-11T05:51:23;100559.84;;;-2.70;70.71
68859;BME280;55864;49.238;8.092;2024-01-11T05:53:24;100566.88;;;-2.79;70.88
68859;BME280;55864;49.238;8.092;2024-01-11T05:55:26;100567.81;;;-2.82;70.38
68859;BME280;55864;49.238;8.092;2024-01-11T05:57:26;100559.97;;;-2.76;69.70
68859;BME280;55864;49.238;8.092;2024-01-11T05:59:27;100566.59;;;-3.06;71.25
68859;BME280;55864;49.238;8.092;2024-01-11T06:01:27;100566.53;;;-2.63;70.51
68859;BME280;55864;49.238;8.092;2024-01-11T06:03:28;100573.19;;;-2.94;70.82
68859;BME280;55864;49.238;8.092;2024-01-11T06:05:28;100580.63;;;-2.80;70.26
68859;BME280;55864;49.238;8.092;2024-01-11T06:07:29;100577.88;;;-2.71;70.34
68859;BME280;55864;49.238;8.092;2024-01-11T06:09:29;100572.38;;;-2.96;71.04
68859;BME280;55864;49.238;8.092;2024-01-11T06:11:31;100573.09;;;-2.88;70.15
68859;BME280;55864;49.238;8.092;2024-01-11T06:13:32;100569.81;;;-2.96;70.10
68859;BME280;55864;49.238;8.092;2024-01-11T06:15:32;100573.53;;;-3.11;71.06
68859;BME280;55864;49.238;8.092;2024-01-11T06:17:33;100570.09;;;-3.10;71.15
68859;BME280;55864;49.238;8.092;2024-01-11T06:19:33;100573.53;;;-3.11;71.19
68859;BME280;55864;49.238;8.092;2024-01-11T06:21:34;100573.59;;;-3.14;70.74
68859;BME280;55864;49.238;8.092;2024-01-11T06:23:34;100579.69;;;-3.19;71.58
68859;BME280;55864;49.238;8.092;2024-01-11T06:25:35;100582.22;;;-3.18;70.93
68859;BME280;55864;49.238;8.092;2024-01-11T06:27:37;100574.31;;;-3.07;71.25
68859;BME280;55864;49.238;8.092;2024-01-11T06:29:37;100567.41;;;-3.04;71.28
68859;BME280;55864;49.238;8.092;2024-01-11T06:31:38;100582.22;;;-3.18;70.91
68859;BME280;55864;49.238;8.092;2024-01-11T06:33:38;100574.06;;;-2.95;70.20
68859;BME280;55864;49.238;8.092;2024-01-11T06:35:39;100571.19;;;-2.80;70.80
68859;BME280;55864;49.238;8.092;2024-01-11T06:37:39;100570.56;;;-2.90;69.82
68859;BME280;55864;49.238;8.092;2024-01-11T06:39:40;100576.94;;;-3.09;70.28
68859;BME280;55864;49.238;8.092;2024-01-11T06:41:41;100582.81;;;-3.04;70.40
68859;BME280;55864;49.238;8.092;2024-01-11T06:43:42;100579.63;;;-3.15;71.47
68859;BME280;55864;49.238;8.092;2024-01-11T06:45:43;100585.47;;;-3.07;71.08
68859;BME280;55864;49.238;8.092;2024-01-11T06:47:43;100590.44;;;-3.01;70.80
68859;BME280;55864;49.238;8.092;2024-01-11T06:49:45;100594.63;;;-2.95;70.45
68859;BME280;55864;49.238;8.092;2024-01-11T06:51:46;100599.09;;;-3.03;70.16
68859;BME280;55864;49.238;8.092;2024-01-11T06:53:46;100601.91;;;-3.17;70.55
68859;BME280;55864;49.238;8.092;2024-01-11T06:55:47;100605.19;;;-3.10;70.74
68859;BME280;55864;49.238;8.092;2024-01-11T06:57:47;100614.28;;;-2.93;70.63
68859;BME280;55864;49.238;8.092;2024-01-11T06:59:49;100614.28;;;-2.93;70.59
68859;BME280;55864;49.238;8.092;2024-01-11T07:01:50;100626.72;;;-3.16;71.43
68859;BME280;55864;49.238;8.092;2024-01-11T07:03:50;100631.31;;;-3.33;71.43
68859;BME280;55864;49.238;8.092;2024-01-11T07:05:51;100630.28;;;-3.23;71.27
68859;BME280;55864;49.238;8.092;2024-01-11T07:07:51;100626.56;;;-3.07;71.38
68859;BME280;55864;49.238;8.092;2024-01-11T07:09:52;100635.69;;;-3.38;71.51
68859;BME280;55864;49.238;8.092;2024-01-11T07:11:52;100642.94;;;-3.14;72.08
68859;BME280;55864;49.238;8.092;2024-01-11T07:13:53;100642.50;;;-3.37;71.85
68859;BME280;55864;49.238;8.092;2024-01-11T07:15:55;100652.06;;;-3.43;71.78
68859;BME280;55864;49.238;8.092;2024-01-11T07:17:55;100653.34;;;-3.18;71.89
68859;BME280;55864;49.238;8.092;2024-01-11T07:19:56;100649.84;;;-3.16;71.62
68859;BME280;55864;49.238;8.092;2024-01-11T07:21:56;100645.03;;;-3.34;71.61
68859;BME280;55864;49.238;8.092;2024-01-11T07:23:57;100632.00;;;-3.22;71.92
68859;BME280;55864;49.238;8.092;2024-01-11T07:25:57;100643.25;;;-3.30;72.01
68859;BME280;55864;49.238;8.092;2024-01-11T07:27:58;100648.47;;;-3.35;72.99
68859;BME280;55864;49.238;8.092;2024-01-11T07:29:58;100643.72;;;-3.09;72.57
68859;BME280;55864;49.238;8.092;2024-01-11T07:32:01;100650.13;;;-3.31;72.03
68859;BME280;55864;49.238;8.092;2024-01-11T07:34:01;100654.03;;;-3.12;71.92
68859;BME280;55864;49.238;8.092;2024-01-11T07:36:02;100648.34;;;-3.26;72.64
68859;BME280;55864;49.238;8.092;2024-01-11T07:38:03;100651.44;;;-3.56;73.73
68859;BME280;55864;49.238;8.092;2024-01-11T07:40:04;100659.44;;;-3.25;73.29
68859;BME280;55864;49.238;8.092;2024-01-11T07:42:05;100659.16;;;-3.10;72.75
68859;BME280;55864;49.238;8.092;2024-01-11T07:44:06;100657.13;;;-2.93;73.16
68859;BME280;55864;49.238;8.092;2024-01-11T07:46:06;100671.72;;;-2.94;72.54
68859;BME280;55864;49.238;8.092;2024-01-11T07:48:08;100670.06;;;-2.98;72.69
68859;BME280;55864;49.238;8.092;2024-01-11T07:50:09;100666.03;;;-3.11;74.57
68859;BME280;55864;49.238;8.092;2024-01-11T07:52:10;100674.47;;;-3.04;74.09
68859;BME280;55864;49.238;8.092;2024-01-11T07:54:10;100685.81;;;-3.16;74.33
68859;BME280;55864;49.238;8.092;2024-01-11T07:56:11;100685.59;;;-3.04;73.71
68859;BME280;55864;49.238;8.092;2024-01-11T07:58:11;100674.94;;;-2.82;73.80
68859;BME280;55864;49.238;8.092;2024-01-11T08:00:12;100682.44;;;-2.73;73.05
68859;BME280;55864;49.238;8.092;2024-01-11T08:02:15;100680.59;;;-2.65;72.95
68859;BME280;55864;49.238;8.092;2024-01-11T08:04:17;100673.06;;;-2.76;73.85
68859;BME280;55864;49.238;8.092;2024-01-11T08:06:18;100669.16;;;-2.95;74.81
68859;BME280;55864;49.238;8.092;2024-01-11T08:08:18;100676.44;;;-2.74;73.30
68859;BME280;55864;49.238;8.092;2024-01-11T08:10:19;100676.72;;;-2.88;74.17
68859;BME280;55864;49.238;8.092;2024-01-11T08:12:19;100676.22;;;-2.62;73.16
68859;BME280;55864;49.238;8.092;2024-01-11T08:14:20;100678.72;;;-2.57;73.30
68859;BME280;55864;49.238;8.092;2024-01-11T08:16:21;100686.44;;;-2.57;73.20
68859;BME280;55864;49.238;8.092;2024-01-11T08:18:21;100682.38;;;-2.69;73.95
68859;BME280;55864;49.238;8.092;2024-01-11T08:20:23;100680.28;;;-2.50;73.00
68859;BME280;55864;49.238;8.092;2024-01-11T08:22:24;100681.13;;;-2.50;73.99
68859;BME280;55864;49.238;8.092;2024-01-11T08:24:24;100691.84;;;-2.30;73.35
68859;BME280;55864;49.238;8.092;2024-01-11T08:26:25;100686.50;;;-2.21;71.95
68859;BME280;55864;49.238;8.092;2024-01-11T08:28:25;100684.00;;;-2.24;71.17
68859;BME280;55864;49.238;8.092;2024-01-11T08:30:26;100681.53;;;-2.28;73.57
68859;BME280;55864;49.238;8.092;2024-01-11T08:32:27;100677.88;;;-2.18;71.59
68859;BME280;55864;49.238;8.092;2024-01-11T08:34:27;100672.66;;;-2.15;73.92
68859;BME280;55864;49.238;8.092;2024-01-11T08:36:31;100678.22;;;-1.97;71.49
68859;BME280;55864;49.238;8.092;2024-01-11T08:38:32;100675.69;;;-1.98;71.96
68859;BME280;55864;49.238;8.092;2024-01-11T08:40:33;100686.06;;;-2.01;70.96
68859;BME280;55864;49.238;8.092;2024-01-11T08:42:33;100684.00;;;-1.85;69.56
68859;BME280;55864;49.238;8.092;2024-01-11T08:44:34;100685.66;;;-1.83;69.59
68859;BME280;55864;49.238;8.092;2024-01-11T08:46:34;100688.91;;;-1.75;70.70
68859;BME280;55864;49.238;8.092;2024-01-11T08:48:35;100687.47;;;-1.51;70.22
68859;BME280;55864;49.238;8.092;2024-01-11T08:50:35;100690.78;;;-1.46;68.71
68859;BME280;55864;49.238;8.092;2024-01-11T08:52:37;100690.28;;;-1.27;69.64
68859;BME280;55864;49.238;8.092;2024-01-11T08:54:37;100685.59;;;-1.11;68.43
68859;BME280;55864;49.238;8.092;2024-01-11T08:56:38;100694.19;;;-1.11;68.16
68859;BME280;55864;49.238;8.092;2024-01-11T08:58:39;100693.72;;;-0.94;68.64
68859;BME280;55864;49.238;8.092;2024-01-11T09:00:40;100695.25;;;-0.85;65.89
68859;BME280;55864;49.238;8.092;2024-01-11T09:02:40;100691.56;;;-0.77;65.14
68859;BME280;55864;49.238;8.092;2024-01-11T09:04:41;100688.72;;;-0.68;65.72
68859;BME280;55864;49.238;8.092;2024-01-11T09:06:41;100688.66;;;-0.65;64.97
68859;BME280;55864;49.238;8.092;2024-01-11T09:08:43;100691.78;;;-0.54;64.89
68859;BME280;55864;49.238;8.092;2024-01-11T09:10:44;100686.94;;;-0.35;64.24
68859;BME280;55864;49.238;8.092;2024-01-11T09:12:44;100684.75;;;-0.20;63.46
68859;BME280;55864;49.238;8.092;2024-01-11T09:14:45;100687.38;;;-0.50;64.06
68859;BME280;55864;49.238;8.092;2024-01-11T09:16:45;100694.31;;;-0.52;64.24
68859;BME280;55864;49.238;8.092;2024-01-11T09:18:47;100692.97;;;-0.65;64.58
68859;BME280;55864;49.238;8.092;2024-01-11T09:20:47;100702.25;;;-0.60;63.99
68859;BME280;55864;49.238;8.092;2024-01-11T09:22:48;100691.50;;;-0.75;65.58
68859;BME280;55864;49.238;8.092;2024-01-11T09:24:50;100698.84;;;-0.91;65.55
68859;BME280;55864;49.238;8.092;2024-01-11T09:26:50;100695.84;;;-0.77;65.09
68859;BME280;55864;49.238;8.092;2024-01-11T09:28:51;100691.69;;;-0.81;66.30
68859;BME280;55864;49.238;8.092;2024-01-11T09:30:51;100697.63;;;-1.12;67.57
68859;BME280;55864;49.238;8.092;2024-01-11T09:32:52;100703.28;;;-0.98;67.68
68859;BME280;55864;49.238;8.092;2024-01-11T09:34:53;100701.19;;;-1.16;68.87
68859;BME280;55864;49.238;8.092;2024-01-11T09:36:53;100698.13;;;-0.98;68.40
68859;BME280;55864;49.238;8.092;2024-01-11T09:38:54;100695.97;;;-0.80;66.51
68859;BME280;55864;49.238;8.092;2024-01-11T09:41:05;100706.38;;;-0.83;66.51
68859;BME280;55864;49.238;8.092;2024-01-11T09:43:08;100702.78;;;-1.12;68.65
68859;BME280;55864;49.238;8.092;2024-01-11T09:45:10;100708.13;;;-0.85;66.78
68859;BME280;55864;49.238;8.092;2024-01-11T09:47:14;100706.47;;;-0.88;67.00
68859;BME280;55864;49.238;8.092;2024-01-11T09:49:16;100710.72;;;-0.85;66.72
68859;BME280;55864;49.238;8.092;2024-01-11T09:51:17;100717.03;;;-0.97;68.31
68859;BME280;55864;49.238;8.092;2024-01-11T09:53:19;100719.22;;;-0.82;68.33
68859;BME280;55864;49.238;8.092;2024-01-11T09:55:20;100713.69;;;-0.68;65.90
68859;BME280;55864;49.238;8.092;2024-01-11T09:57:24;100708.75;;;-0.76;67.51
68859;BME280;55864;49.238;8.092;2024-01-11T09:59:27;100706.97;;;-0.75;68.12
68859;BME280;55864;49.238;8.092;2024-01-11T10:01:28;100709.84;;;-0.54;65.86
68859;BME280;55864;49.238;8.092;2024-01-11T10:03:29;100704.19;;;-0.66;67.60
68859;BME280;55864;49.238;8.092;2024-01-11T10:05:29;100705.06;;;-0.67;66.24
68859;BME280;55864;49.238;8.092;2024-01-11T10:07:30;100705.94;;;-0.68;66.63
68859;BME280;55864;49.238;8.092;2024-01-11T10:09:32;100711.13;;;-0.68;67.45
68859;BME280;55864;49.238;8.092;2024-01-11T10:11:32;100703.91;;;-0.57;66.15
68859;BME280;55864;49.238;8.092;2024-01-11T10:13:35;100704.34;;;-0.72;68.49
68859;BME280;55864;49.238;8.092;2024-01-11T10:15:36;100704.78;;;-0.58;67.63
68859;BME280;55864;49.238;8.092;2024-01-11T10:17:37;100693.97;;;-0.40;67.94
68859;BME280;55864;49.238;8.092;2024-01-11T10:19:40;100696.38;;;-0.05;64.93
68859;BME280;55864;49.238;8.092;2024-01-11T10:21:41;100695.84;;;0.12;64.19
68859;BME280;55864;49.238;8.092;2024-01-11T10:23:41;100697.22;;;0.23;63.19
68859;BME280;55864;49.238;8.092;2024-01-11T10:25:42;100710.81;;;0.30;62.54
68859;BME280;55864;49.238;8.092;2024-01-11T10:27:44;100702.69;;;0.40;63.91
68859;BME280;55864;49.238;8.092;2024-01-11T10:29:46;100710.03;;;0.54;62.36
68859;BME280;55864;49.238;8.092;2024-01-11T10:31:46;100711.44;;;0.64;63.16